Terminal Aerodrome Forecast
Issued by NWS Bismarck, ND

Home | Current Version | Previous Version | Graphics & Text | Print | Product List | Glossary On
Versions: 1 2 3 4 5 6 7 8 9 10 11 12 13 14 15 16
000
FTUS43 KBIS 261720
TAFISN
TAF
KISN 261720Z 2618/2718 23004KT P6SM FEW100
     FM261900 20005KT P6SM FEW070
     FM270200 17003KT P6SM FEW120
     FM270700 19008KT P6SM VCSH SCT100
     FM271100 18009KT P6SM SCT180=

USA.gov is the U.S. government's official web portal to all federal, state and local government web resources and services.